Time;durP1;ratioP1;P1;durP2;ratioP2;P2;SDS_P1;SDS_P2;PMS_P1;PMS_P2;Temp;Humidity;BMP_temperature;BMP_pressure;BME280_temperature;BME280_humidity;BME280_pressure;Samples;Min_cycle;Max_cycle;Signal;HPM_P1;HPM_P2
2021/07/30 00:00:31;;;;;;;1.23;1.00;;;16.70;87.10;;;15.25;100.00;100189.22;3536590;39;101313;-81
2021/07/30 00:02:58;;;;;;;1.45;1.25;;;16.70;87.70;;;15.20;100.00;100192.50;3534679;39;101296;-81
2021/07/30 00:05:25;;;;;;;1.25;1.15;;;16.60;88.00;;;15.15;100.00;100229.97;3534646;39;100452;-81
2021/07/30 00:07:52;;;;;;;1.58;1.15;;;16.60;88.80;;;15.12;100.00;100243.81;3553939;39;101340;-81
2021/07/30 00:10:19;;;;;;;4.15;1.33;;;16.50;89.90;;;15.09;100.00;100249.56;3536776;39;100583;-80
2021/07/30 00:12:50;;;;;;;1.75;1.10;;;16.50;90.10;;;15.06;100.00;100253.50;3535033;39;100704;-82
2021/07/30 00:15:17;;;;;;;0.95;0.95;;;16.40;90.50;;;15.06;100.00;100255.38;3536459;39;100051;-83
2021/07/30 00:17:44;;;;;;;1.08;0.98;;;16.40;90.90;;;15.10;100.00;100251.25;3525958;39;103307;-83
2021/07/30 00:20:11;;;;;;;1.92;1.40;;;16.40;91.60;;;15.06;100.00;100269.66;3536645;39;101063;-84
2021/07/30 00:22:38;;;;;;;0.80;0.63;;;16.30;91.80;;;15.09;100.00;100271.13;3534256;39;101002;-82
2021/07/30 00:25:06;;;;;;;1.60;1.48;;;16.30;91.80;;;15.09;100.00;100281.91;3515545;39;100318;-82
2021/07/30 00:27:33;;;;;;;6.32;1.50;;;16.30;91.90;;;14.86;100.00;100289.25;3525967;39;100844;-82
2021/07/30 00:30:02;;;;;;;2.42;1.20;;;16.20;92.00;;;14.67;100.00;100298.75;3524083;39;102910;-79
2021/07/30 00:32:28;;;;;;;1.25;1.13;;;15.80;92.10;;;14.45;100.00;100322.03;3531622;39;100492;-81
2021/07/30 00:34:55;;;;;;;2.38;1.65;;;16.10;92.60;;;14.37;100.00;100332.81;3530908;39;99998;-82
2021/07/30 00:37:22;;;;;;;2.05;1.30;;;16.10;92.90;;;14.31;100.00;100353.22;3525360;39;102961;-84
2021/07/30 00:39:50;;;;;;;1.85;1.65;;;16.00;93.20;;;14.24;100.00;100367.56;3529159;39;100781;-81
2021/07/30 00:42:17;;;;;;;3.13;1.40;;;15.90;93.60;;;14.05;100.00;100368.91;3535893;39;100599;-80
2021/07/30 00:44:43;;;;;;;2.83;1.73;;;15.80;94.20;;;13.83;100.00;100377.78;3526096;39;100342;-81
2021/07/30 00:47:12;;;;;;;2.20;1.83;;;15.70;95.50;;;13.76;100.00;100385.69;3529268;39;103242;-82
2021/07/30 00:49:41;;;;;;;9.57;1.48;;;15.80;96.10;;;13.70;100.00;100168.63;3523091;39;103602;-80
2021/07/30 00:52:08;;;;;;;1.50;1.40;;;15.60;96.90;;;13.68;100.00;100119.56;3532041;39;99813;-81
2021/07/30 00:54:35;;;;;;;1.60;1.50;;;15.40;97.30;;;13.66;100.00;100126.97;3528217;39;101429;-80
2021/07/30 00:57:03;;;;;;;4.88;1.67;;;16.10;98.00;;;13.75;100.00;100176.13;3532699;39;100977;-81
2021/07/30 00:59:37;;;;;;;1.63;1.52;;;15.30;97.80;;;13.76;100.00;100192.06;3527106;39;102640;-82
2021/07/30 01:02:05;;;;;;;1.52;1.42;;;15.30;97.90;;;13.72;100.00;100203.41;3536920;39;100162;-81
2021/07/30 01:04:33;;;;;;;1.40;1.30;;;15.10;98.00;;;13.86;100.00;100219.56;3526331;39;100226;-81
2021/07/30 01:07:00;;;;;;;1.50;1.30;;;15.40;98.30;;;13.64;100.00;100218.56;3537255;39;100894;-82
2021/07/30 01:09:27;;;;;;;2.20;1.55;;;15.10;98.40;;;13.60;100.00;100224.47;3526511;39;101201;-81
2021/07/30 01:11:54;;;;;;;5.63;1.63;;;15.00;98.70;;;13.47;100.00;100241.22;3527800;39;100401;-83
2021/07/30 01:14:22;;;;;;;2.53;1.60;;;15.00;98.90;;;13.29;100.00;100254.91;3526083;39;100495;-81
2021/07/30 01:16:50;;;;;;;4.53;1.70;;;14.90;99.20;;;13.29;100.00;100265.66;3516808;39;103234;-81
2021/07/30 01:19:22;;;;;;;1.87;1.73;;;14.90;99.60;;;13.22;100.00;100301.47;3527395;39;101069;-80
2021/07/30 01:21:53;;;;;;;1.27;1.17;;;14.80;99.90;;;13.10;100.00;100311.75;3527647;39;100484;-82
2021/07/30 01:24:23;;;;;;;5.17;2.33;;;14.80;99.90;;;13.06;100.00;100358.75;3528163;39;100519;-82
2021/07/30 01:26:51;;;;;;;2.83;1.80;;;15.30;99.90;;;13.06;100.00;100377.56;3528836;39;101331;-82
2021/07/30 01:29:18;;;;;;;4.30;1.87;;;14.70;99.90;;;13.04;100.00;100400.22;3527734;39;101384;-81
2021/07/30 01:31:45;;;;;;;1.93;1.77;;;14.60;99.90;;;12.98;100.00;100403.59;3526822;39;101054;-80
2021/07/30 01:34:12;;;;;;;2.43;1.67;;;14.60;99.90;;;12.93;100.00;100428.28;3518030;39;100360;-83
2021/07/30 01:36:39;;;;;;;1.90;1.50;;;14.50;99.90;;;12.94;100.00;100456.81;3529266;39;102840;-82
2021/07/30 01:39:06;;;;;;;2.43;1.70;;;14.50;99.90;;;12.94;100.00;100468.41;3547400;39;100285;-83
2021/07/30 01:41:35;;;;;;;3.53;1.90;;;14.50;99.90;;;12.99;100.00;100480.47;3535694;39;101375;-81
2021/07/30 01:44:02;;;;;;;1.97;1.40;;;14.40;99.90;;;13.03;100.00;100490.72;3527960;39;100118;-80
2021/07/30 01:46:29;;;;;;;3.43;1.87;;;14.40;99.90;;;13.02;100.00;100494.41;3528749;39;101408;-81
2021/07/30 01:48:56;;;;;;;1.80;1.60;;;14.40;99.90;;;12.98;100.00;100498.47;3528538;39;101582;-83
2021/07/30 01:51:23;;;;;;;3.33;2.30;;;14.40;99.90;;;13.14;100.00;100511.03;3518823;39;101603;-80
2021/07/30 01:53:50;;;;;;;2.70;2.03;;;14.40;99.90;;;13.13;100.00;100507.50;3517947;39;100124;-80
2021/07/30 01:56:17;;;;;;;3.73;1.83;;;14.40;99.90;;;13.18;100.00;100517.78;3526488;39;100929;-80
2021/07/30 01:58:46;;;;;;;3.47;1.90;;;14.70;99.90;;;13.07;100.00;100516.25;3525891;39;101417;-81
2021/07/30 02:01:13;;;;;;;1.63;1.53;;;14.40;99.90;;;13.12;100.00;100521.94;3527911;39;100174;-81
2021/07/30 02:03:40;;;;;;;1.93;1.50;;;14.40;99.90;;;13.15;100.00;100520.78;3527254;39;99976;-82
2021/07/30 02:06:08;;;;;;;2.03;1.70;;;14.40;99.90;;;13.24;100.00;100520.59;3533772;39;100281;-83
2021/07/30 02:08:35;;;;;;;2.27;1.80;;;14.50;99.90;;;13.26;100.00;100517.75;3534642;39;103185;-83
2021/07/30 02:11:08;;;;;;;2.63;1.60;;;14.50;99.90;;;13.36;100.00;100518.41;3537569;39;100458;-82
2021/07/30 02:16:22;;;;;;;1.97;1.77;;;14.50;99.90;;;13.26;100.00;100502.47;3537929;39;100526;-83
2021/07/30 02:18:49;;;;;;;1.50;1.40;;;14.60;99.90;;;13.22;100.00;100501.16;3537409;39;101211;-80
2021/07/30 02:21:16;;;;;;;3.20;2.07;;;14.80;99.90;;;13.15;100.00;100501.97;3535414;39;102300;-80
2021/07/30 02:23:43;;;;;;;2.53;2.03;;;14.60;99.90;;;13.17;100.00;100498.13;3524974;39;100136;-83
2021/07/30 02:26:11;;;;;;;3.13;2.33;;;14.60;99.90;;;13.20;100.00;100502.31;3538368;39;100876;-83
2021/07/30 02:28:38;;;;;;;2.63;2.03;;;14.60;99.90;;;13.15;100.00;100500.13;3542025;39;100624;-83
2021/07/30 02:31:05;;;;;;;1.30;1.13;;;14.60;99.90;;;13.19;100.00;100497.97;3532412;39;100051;-82
2021/07/30 02:33:33;;;;;;;2.63;1.73;;;15.30;99.90;;;13.20;100.00;100508.53;3527832;39;100056;-79
2021/07/30 02:36:00;;;;;;;6.13;1.63;;;14.60;99.90;;;13.23;100.00;100512.72;3516871;39;103342;-83
2021/07/30 02:38:27;;;;;;;8.50;1.57;;;14.60;99.90;;;13.18;100.00;100526.69;3524977;39;103420;-81
2021/07/30 02:40:54;;;;;;;2.33;1.70;;;14.60;99.90;;;13.05;100.00;100547.81;3516938;39;102263;-83
2021/07/30 02:43:21;;;;;;;1.90;1.70;;;14.60;99.90;;;12.97;100.00;100555.03;3526914;39;100135;-81
2021/07/30 02:45:48;;;;;;;1.90;1.57;;;15.60;99.90;;;12.97;100.00;100571.97;3526959;39;100600;-82
2021/07/30 02:48:15;;;;;;;2.37;2.17;;;14.60;99.90;;;12.98;100.00;100580.88;3535902;39;101496;-81
2021/07/30 02:50:44;;;;;;;1.97;1.60;;;14.60;99.90;;;13.01;100.00;100596.66;3534892;39;100754;-81
2021/07/30 02:53:11;;;;;;;1.93;1.70;;;14.60;99.90;;;12.99;100.00;100604.88;3528252;39;99990;-82
2021/07/30 02:55:38;;;;;;;2.50;1.93;;;14.50;99.90;;;12.97;100.00;100614.97;3526040;39;103341;-81
2021/07/30 02:58:05;;;;;;;3.47;2.03;;;14.60;99.90;;;13.00;100.00;100629.88;3516772;39;102817;-81
2021/07/30 03:00:32;;;;;;;2.53;2.23;;;14.50;99.90;;;12.98;100.00;100627.38;3527981;39;100896;-83
2021/07/30 03:02:59;;;;;;;3.33;1.83;;;14.50;99.90;;;12.90;100.00;100635.41;3537378;39;99994;-81
2021/07/30 03:05:26;;;;;;;2.80;2.20;;;14.50;99.90;;;12.84;100.00;100622.66;3531259;39;102059;-81
2021/07/30 03:07:54;;;;;;;2.00;1.77;;;14.50;99.90;;;12.83;100.00;100621.81;3557143;39;101888;-83
2021/07/30 03:10:21;;;;;;;2.13;1.93;;;14.40;99.90;;;12.83;100.00;100621.81;3558057;39;99575;-80
2021/07/30 03:12:48;;;;;;;2.27;1.70;;;15.60;99.90;;;12.76;100.00;100626.13;3542242;39;99933;-82
2021/07/30 03:15:15;;;;;;;4.33;1.70;;;14.40;99.90;;;12.62;100.00;100628.59;3527725;39;101763;-81
2021/07/30 03:17:42;;;;;;;2.80;2.03;;;14.50;99.90;;;12.53;100.00;100639.31;3537517;39;101016;-83
2021/07/30 03:20:11;;;;;;;3.20;1.90;;;15.30;99.90;;;12.68;100.00;100654.81;3538215;39;100402;-82
2021/07/30 03:22:38;;;;;;;4.30;2.03;;;14.20;99.90;;;12.75;100.00;100669.25;3539241;39;100142;-83
2021/07/30 03:25:08;;;;;;;2.83;2.00;;;14.60;99.90;;;12.76;100.00;100666.41;3538318;39;102874;-84
2021/07/30 03:27:35;;;;;;;5.43;1.93;;;14.20;99.90;;;12.73;100.00;100660.56;3540333;39;101114;-82
2021/07/30 03:30:02;;;;;;;1.53;1.43;;;14.20;99.90;;;12.76;100.00;100660.19;3535105;39;100630;-81
2021/07/30 03:32:29;;;;;;;1.67;1.57;;;14.20;99.90;;;12.77;100.00;100646.63;3527734;39;100212;-81
2021/07/30 03:34:56;;;;;;;2.00;1.77;;;14.10;99.90;;;12.75;100.00;100642.41;3527268;39;100763;-82
2021/07/30 03:37:23;;;;;;;3.30;2.13;;;14.10;99.90;;;12.71;100.00;100644.59;3528436;39;101373;-83
2021/07/30 03:39:50;;;;;;;2.07;1.60;;;14.10;99.90;;;12.72;100.00;100640.06;3538001;39;100702;-83
2021/07/30 03:42:18;;;;;;;3.83;1.97;;;14.10;99.90;;;12.75;100.00;100645.94;3527726;39;100144;-82
2021/07/30 03:44:45;;;;;;;2.90;1.97;;;14.10;99.90;;;12.68;100.00;100646.78;3536446;39;103012;-82
2021/07/30 03:47:12;;;;;;;3.80;1.97;;;14.00;99.90;;;12.67;100.00;100645.94;3552508;39;101391;-81
2021/07/30 03:49:39;;;;;;;1.80;1.50;;;14.80;99.90;;;12.66;100.00;100648.75;3557173;39;99441;-82
2021/07/30 03:52:06;;;;;;;2.40;1.77;;;15.10;99.90;;;12.66;100.00;100646.94;3545981;39;99902;-82
2021/07/30 03:54:33;;;;;;;3.47;1.63;;;14.20;99.90;;;12.62;100.00;100653.63;3535438;39;101684;-81
2021/07/30 03:57:00;;;;;;;2.10;1.80;;;13.90;99.90;;;12.59;100.00;100670.06;3535255;39;100868;-80
2021/07/30 03:59:29;;;;;;;2.90;2.20;;;13.90;99.90;;;12.59;100.00;100676.28;3531696;39;100833;-82
2021/07/30 04:01:56;;;;;;;2.27;1.80;;;13.90;99.90;;;12.68;100.00;100690.56;3538359;39;100011;-83
2021/07/30 04:04:23;;;;;;;9.63;1.80;;;13.80;99.90;;;12.76;100.00;100693.28;3536479;39;101066;-83
2021/07/30 04:06:49;;;;;;;2.10;1.63;;;13.80;99.90;;;12.78;100.00;100690.44;3537237;39;101427;-81
2021/07/30 04:09:16;;;;;;;4.23;2.17;;;13.90;99.90;;;12.68;100.00;100687.03;3532167;39;101949;-83
2021/07/30 04:11:44;;;;;;;2.20;1.53;;;13.80;99.90;;;12.75;100.00;100690.75;3527383;39;99979;-82
2021/07/30 04:14:11;;;;;;;2.40;1.73;;;13.90;99.90;;;13.11;100.00;100696.72;3517219;39;102863;-81
2021/07/30 04:16:39;;;;;;;2.47;1.77;;;13.80;99.90;;;13.32;100.00;100699.00;3523749;39;103348;-82
2021/07/30 04:19:08;;;;;;;1.63;1.43;;;13.90;99.90;;;13.32;100.00;100691.78;3517820;39;103314;-82
2021/07/30 04:21:35;;;;;;;3.70;1.80;;;13.90;99.90;;;13.51;100.00;100682.53;3531034;39;99959;-81
2021/07/30 04:24:02;;;;;;;4.30;2.20;;;13.90;99.90;;;13.43;100.00;100669.09;3538702;39;100966;-81
2021/07/30 04:26:29;;;;;;;1.77;1.60;;;14.00;99.90;;;13.57;100.00;100655.84;3538983;39;101196;-81
2021/07/30 04:28:56;;;;;;;2.60;1.80;;;14.00;99.90;;;13.71;100.00;100631.97;3540200;39;100420;-80
2021/07/30 04:31:24;;;;;;;2.50;1.70;;;14.10;99.90;;;13.83;100.00;100601.84;3557571;39;99933;-82
2021/07/30 04:33:52;;;;;;;2.50;2.13;;;14.20;99.90;;;13.64;100.00;100568.09;3542553;39;101751;-82
2021/07/30 04:36:19;;;;;;;2.97;2.10;;;15.20;99.90;;;13.88;100.00;100553.75;3538230;39;100747;-81
2021/07/30 04:38:46;;;;;;;2.23;1.77;;;14.40;99.90;;;13.80;100.00;100537.66;3530921;39;100405;-83
2021/07/30 04:41:13;;;;;;;1.77;1.60;;;14.50;99.90;;;14.04;100.00;100531.34;3531859;39;99989;-82
2021/07/30 04:43:40;;;;;;;3.63;1.67;;;14.50;99.90;;;14.19;100.00;100516.13;3530842;39;101023;-81
2021/07/30 04:46:16;;;;;;;10.13;1.67;;;14.60;99.90;;;14.68;100.00;100502.41;3530274;39;101565;-81
2021/07/30 04:48:44;;;;;;;2.17;1.73;;;15.70;99.90;;;14.77;100.00;100465.47;3529957;39;102091;-83
2021/07/30 04:51:13;;;;;;;2.47;1.90;;;14.80;99.90;;;15.12;100.00;100437.03;3531610;39;100018;-82
2021/07/30 04:53:40;;;;;;;3.78;2.08;;;15.80;99.90;;;15.33;100.00;100392.13;3521982;39;103716;-84
2021/07/30 04:56:07;;;;;;;3.73;1.70;;;15.20;99.90;;;15.60;100.00;100393.34;3518356;39;103156;-82
2021/07/30 04:58:34;;;;;;;3.73;2.13;;;15.80;99.90;;;15.75;100.00;100388.78;3531121;39;100540;-83
2021/07/30 05:01:05;;;;;;;2.00;1.80;;;16.10;99.90;;;15.49;100.00;100353.34;3528319;39;100288;-83
2021/07/30 05:03:32;;;;;;;2.17;1.83;;;15.60;99.90;;;15.70;100.00;100336.44;3535775;39;102910;-82
2021/07/30 05:05:59;;;;;;;5.30;1.73;;;15.80;99.90;;;15.67;100.00;100329.56;3537985;39;101489;-84
2021/07/30 05:08:27;;;;;;;4.97;2.03;;;15.90;99.90;;;15.93;100.00;100331.72;3538968;39;100567;-85
2021/07/30 05:10:54;;;;;;;2.17;1.90;;;16.10;99.90;;;16.06;100.00;100326.44;3554837;39;100255;-83
2021/07/30 05:13:21;;;;;;;3.30;1.90;;;16.20;99.90;;;16.01;100.00;100320.78;3539595;39;100440;-82
2021/07/30 05:15:48;;;;;;;2.15;1.50;;;16.40;99.90;;;16.08;100.00;100312.72;3527323;39;103168;-83
2021/07/30 05:18:15;;;;;;;1.52;1.40;;;16.50;99.90;;;16.33;100.00;100307.75;3536466;39;100451;-81
2021/07/30 05:20:42;;;;;;;2.47;1.95;;;16.70;99.90;;;16.51;100.00;100302.75;3534743;39;100553;-81
2021/07/30 05:23:10;;;;;;;2.58;1.65;;;16.80;99.90;;;16.74;100.00;100292.53;3536979;39;101006;-81
2021/07/30 05:25:38;;;;;;;2.47;1.70;;;17.00;99.90;;;16.74;100.00;100273.63;3536795;39;101233;-82
2021/07/30 05:28:05;;;;;;;2.25;1.80;;;17.20;99.90;;;16.53;100.00;100261.00;3535756;39;100437;-84
2021/07/30 05:30:35;;;;;;;1.77;1.52;;;17.30;99.90;;;16.64;100.00;100256.09;3536819;39;100418;-83
2021/07/30 05:33:02;;;;;;;1.60;1.27;;;17.50;99.90;;;17.17;100.00;100255.38;3535198;39;100879;-82
2021/07/30 05:35:29;;;;;;;2.28;1.42;;;17.70;99.90;;;16.76;100.00;100230.19;3526479;39;103065;-83
2021/07/30 05:37:56;;;;;;;3.65;1.83;;;17.80;99.90;;;17.34;100.00;100227.94;3525007;39;101151;-82
2021/07/30 05:40:23;;;;;;;1.48;1.35;;;18.00;99.90;;;17.13;100.00;100210.00;3535317;39;100127;-81
2021/07/30 05:42:51;;;;;;;3.08;1.40;;;18.10;99.90;;;17.27;100.00;100219.81;3536034;39;101065;-81
2021/07/30 05:45:18;;;;;;;3.90;1.38;;;19.00;99.90;;;18.00;100.00;100201.03;3534832;39;101360;-82
2021/07/30 05:47:48;;;;;;;1.27;1.00;;;18.40;99.90;;;18.05;100.00;100164.16;3525778;39;102495;-81
2021/07/30 05:50:15;;;;;;;2.13;1.75;;;18.60;99.90;;;17.97;100.00;100137.28;3536478;39;100329;-83
2021/07/30 05:52:42;;;;;;;2.25;1.52;;;18.80;99.90;;;18.24;100.00;100119.13;3535624;39;101260;-82
2021/07/30 05:55:10;;;;;;;2.08;1.30;;;19.00;99.90;;;18.05;100.00;100110.00;3547626;39;102285;-81
2021/07/30 05:57:37;;;;;;;2.67;1.38;;;19.20;98.60;;;18.27;100.00;100103.31;3544264;39;100233;-83
2021/07/30 06:00:07;;;;;;;0.95;0.93;;;19.30;97.90;;;18.36;100.00;100087.66;3526110;39;100199;-82
2021/07/30 06:02:37;;;;;;;3.85;1.23;;;19.50;97.10;;;18.20;100.00;100082.69;3536407;39;100956;-84
2021/07/30 06:05:05;;;;;;;1.50;1.33;;;19.60;95.90;;;18.27;100.00;100080.81;3527093;39;103516;-80
2021/07/30 06:07:33;;;;;;;2.58;1.77;;;19.80;95.30;;;18.41;100.00;100087.00;3536412;39;100721;-81
2021/07/30 06:10:00;;;;;;;1.83;1.20;;;19.90;94.50;;;18.52;100.00;100154.91;3536317;39;100039;-82
2021/07/30 06:12:27;;;;;;;4.28;1.42;;;20.00;94.00;;;18.46;100.00;100153.03;3519888;39;102854;-82
2021/07/30 06:14:54;;;;;;;2.53;1.05;;;20.10;92.90;;;18.43;100.00;100144.50;3532936;39;101640;-84
2021/07/30 06:17:22;;;;;;;2.55;1.23;;;20.90;92.40;;;18.37;100.00;100129.09;3533748;39;100737;-82
2021/07/30 06:19:52;;;;;;;2.20;0.75;;;20.30;91.20;;;18.44;100.00;100140.75;3525911;39;100096;-83
2021/07/30 06:22:20;;;;;;;1.92;0.68;;;20.30;90.50;;;18.78;100.00;100140.47;3537809;39;101270;-83
2021/07/30 06:24:47;;;;;;;1.05;0.95;;;20.40;90.00;;;19.01;100.00;100121.78;3534826;39;101373;-81
2021/07/30 06:27:15;;;;;;;1.27;0.98;;;20.50;89.90;;;19.15;100.00;100124.44;3528096;39;102849;-83
2021/07/30 06:29:42;;;;;;;2.78;1.10;;;20.60;89.00;;;19.38;100.00;100135.56;3527387;39;100267;-83
2021/07/30 06:32:09;;;;;;;2.13;1.10;;;21.50;89.30;;;19.52;100.00;100117.34;3539703;39;100689;-82
2021/07/30 06:34:37;;;;;;;3.05;1.05;;;20.90;88.30;;;19.14;100.00;100087.50;3557236;39;99981;-83
2021/07/30 06:37:05;;;;;;;2.03;1.05;;;21.00;84.80;;;19.46;100.00;100096.47;3533735;39;100915;-83
2021/07/30 06:39:32;;;;;;;3.47;1.48;;;21.80;85.00;;;19.26;100.00;100083.06;3532026;39;100128;-83
2021/07/30 06:41:59;;;;;;;4.22;1.42;;;21.50;84.80;;;19.33;100.00;100078.41;3539074;39;100772;-83
2021/07/30 06:44:26;;;;;;;2.13;1.40;;;21.50;82.80;;;19.93;100.00;100081.44;3537616;39;101398;-81
2021/07/30 06:46:54;;;;;;;3.55;2.25;;;22.40;83.00;;;19.85;100.00;100060.03;3537640;39;100048;-81
2021/07/30 06:49:21;;;;;;;1.48;0.90;;;22.30;81.70;;;19.77;100.00;100041.31;3535150;39;100165;-83
2021/07/30 06:51:49;;;;;;;3.53;1.42;;;22.00;79.40;;;19.19;100.00;99993.56;3535593;39;100982;-82
2021/07/30 06:54:16;;;;;;;2.30;1.33;;;22.10;76.90;;;19.62;100.00;99965.69;3535964;39;101340;-84
2021/07/30 06:56:46;;;;;;;1.23;1.00;;;22.10;75.40;;;19.93;100.00;99957.38;3530717;39;100691;-83
2021/07/30 06:59:13;;;;;;;1.58;1.30;;;22.30;76.10;;;20.11;100.00;99933.97;3531405;39;99929;-82
2021/07/30 07:01:40;;;;;;;1.25;0.75;;;22.20;75.40;;;20.25;100.00;99930.88;3537658;39;101249;-84
2021/07/30 07:04:07;;;;;;;2.88;1.45;;;22.30;75.20;;;20.47;100.00;99920.34;3526451;39;103278;-84
2021/07/30 07:06:34;;;;;;;2.90;1.38;;;22.50;74.70;;;20.22;100.00;99915.03;3532410;39;100820;-84
2021/07/30 07:09:02;;;;;;;2.80;1.20;;;22.80;71.80;;;19.89;100.00;99906.50;3537383;39;100394;-83
2021/07/30 07:11:29;;;;;;;1.95;1.00;;;22.40;69.80;;;19.92;100.00;99900.56;3534866;39;101373;-82
2021/07/30 07:13:56;;;;;;;1.88;1.40;;;22.80;69.00;;;20.59;100.00;99902.19;3539884;39;103621;-83
2021/07/30 07:16:23;;;;;;;1.58;0.80;;;22.80;70.10;;;20.37;100.00;99898.34;3535710;39;100745;-86
2021/07/30 07:18:50;;;;;;;0.75;0.73;;;22.90;69.60;;;20.61;100.00;99897.34;3536702;39;100042;-81
2021/07/30 07:21:17;;;;;;;1.25;1.02;;;23.10;69.00;;;20.77;100.00;99882.25;3540360;39;100663;-81
2021/07/30 07:23:44;;;;;;;1.08;0.90;;;24.00;68.80;;;21.01;100.00;99877.66;3536708;39;101466;-84
2021/07/30 07:26:12;;;;;;;2.90;0.98;;;23.80;68.30;;;20.67;100.00;99866.50;3528459;39;102664;-81
2021/07/30 07:28:39;;;;;;;2.28;0.90;;;23.70;64.90;;;21.18;100.00;99865.00;3536341;39;101611;-81
2021/07/30 07:31:06;;;;;;;0.77;0.68;;;23.80;65.50;;;21.03;100.00;99864.63;3531623;39;101173;-82
2021/07/30 07:33:33;;;;;;;0.93;0.73;;;24.80;65.00;;;20.53;100.00;99865.03;3536493;39;101012;-83
2021/07/30 07:36:00;;;;;;;3.25;1.10;;;23.80;62.60;;;21.21;100.00;99855.56;3536417;39;100418;-83
2021/07/30 07:38:27;;;;;;;0.63;0.60;;;24.30;62.80;;;21.17;100.00;99855.16;3540451;39;100189;-81
2021/07/30 07:40:54;;;;;;;0.88;0.73;;;24.90;62.10;;;21.23;100.00;99854.25;3536425;39;100910;-82
2021/07/30 07:43:23;;;;;;;1.10;1.00;;;24.50;60.90;;;21.20;100.00;99843.84;3525112;39;102964;-83
2021/07/30 07:45:50;;;;;;;1.05;0.95;;;25.30;58.90;;;21.44;100.00;99844.66;3537068;39;100647;-84
2021/07/30 07:48:17;;;;;;;1.13;1.00;;;24.80;57.90;;;21.15;100.00;99849.13;3526958;39;100087;-83
2021/07/30 07:50:44;;;;;;;2.50;0.90;;;24.80;57.90;;;20.80;100.00;99836.38;3536339;39;100825;-81
2021/07/30 07:53:15;;;;;;;2.10;1.17;;;24.90;57.50;;;21.11;100.00;99843.38;3551324;39;101191;-81
2021/07/30 07:55:42;;;;;;;4.30;1.00;;;25.00;55.90;;;21.38;100.00;99842.91;3536507;39;100342;-82
2021/07/30 07:58:10;;;;;;;0.50;0.40;;;24.90;56.40;;;21.76;100.00;99840.41;3535744;39;100089;-83
2021/07/30 08:00:40;;;;;;;2.05;0.95;;;24.90;56.60;;;21.38;100.00;99835.56;3535600;39;101154;-82
2021/07/30 08:03:07;;;;;;;0.73;0.63;;;25.00;55.30;;;21.51;100.00;99835.25;3536378;39;100854;-81
2021/07/30 08:05:34;;;;;;;1.52;0.63;;;25.60;55.80;;;21.68;100.00;99834.53;3541014;39;100511;-82
2021/07/30 08:08:01;;;;;;;0.95;0.93;;;25.00;55.10;;;21.50;100.00;99830.91;3529465;39;100196;-83
2021/07/30 08:10:28;;;;;;;1.80;1.00;;;25.10;55.20;;;21.99;100.00;99828.66;3536417;39;100793;-81
2021/07/30 08:12:55;;;;;;;0.65;0.65;;;25.20;55.30;;;22.07;100.00;99828.25;3536243;39;101002;-82
2021/07/30 08:15:22;;;;;;;0.90;0.90;;;25.30;55.50;;;21.96;100.00;99834.53;3525486;39;103368;-81
2021/07/30 08:17:51;;;;;;;1.63;0.95;;;25.40;54.80;;;21.70;100.00;99827.78;3534497;39;100254;-81
2021/07/30 08:20:18;;;;;;;3.45;1.35;;;26.20;54.60;;;22.01;100.00;99822.94;3535928;39;100929;-81
2021/07/30 08:22:45;;;;;;;5.10;1.48;;;25.80;54.50;;;22.11;100.00;99817.69;3531195;39;101436;-82
2021/07/30 08:25:13;;;;;;;1.00;0.82;;;25.60;54.50;;;22.24;100.00;99824.75;3524481;39;101514;-82
2021/07/30 08:27:41;;;;;;;0.50;0.50;;;25.50;54.60;;;22.29;100.00;99825.63;3536931;39;100052;-81
2021/07/30 08:30:09;;;;;;;3.15;0.70;;;26.30;53.80;;;22.29;100.00;99833.00;3550561;39;100705;-84
2021/07/30 08:32:36;;;;;;;0.60;0.60;;;26.40;53.30;;;22.43;100.00;99826.97;3545790;39;100210;-83
2021/07/30 08:35:06;;;;;;;2.58;1.00;;;26.40;52.80;;;22.72;100.00;99824.19;3534198;39;100206;-80
2021/07/30 08:37:34;;;;;;;1.48;1.15;;;25.90;52.30;;;22.33;100.00;99831.44;3536095;39;100040;-82
2021/07/30 08:40:02;;;;;;;1.55;0.95;;;26.00;50.60;;;22.66;100.00;99823.28;3534347;39;100770;-83
2021/07/30 08:42:36;;;;;;;2.00;0.52;;;26.10;51.00;;;22.84;100.00;99814.03;3536097;39;100981;-83
2021/07/30 08:45:05;;;;;;;1.08;0.55;;;26.10;51.00;;;22.55;100.00;99829.63;3544746;39;100100;-83
2021/07/30 08:47:32;;;;;;;1.05;0.95;;;26.10;49.80;;;22.25;100.00;99821.78;3534457;39;100173;-83
2021/07/30 08:50:00;;;;;;;0.70;0.70;;;26.10;49.80;;;22.34;100.00;99825.75;3536441;39;100871;-83
2021/07/30 08:52:35;;;;;;;1.30;0.77;;;26.00;49.70;;;22.80;100.00;99815.59;3532013;39;101521;-80
2021/07/30 08:55:03;;;;;;;0.68;0.63;;;26.10;50.20;;;23.15;100.00;99809.84;3540497;39;100383;-82
2021/07/30 08:57:35;;;;;;;0.90;0.75;;;26.20;50.10;;;22.70;100.00;99807.25;3537165;39;99905;-82
2021/07/30 09:00:12;;;;;;;0.82;0.82;;;26.30;49.60;;;22.82;100.00;99816.19;3536744;39;100758;-83
2021/07/30 09:02:39;;;;;;;1.77;0.93;;;26.30;48.80;;;23.01;100.00;99808.53;3537168;39;100925;-85
2021/07/30 09:05:27;;;;;;;1.08;0.75;;;26.40;49.50;;;22.72;100.00;99803.19;3537992;39;100630;-81
2021/07/30 09:07:56;;;;;;;0.60;0.55;;;26.70;48.80;;;22.83;100.00;99810.50;3539597;39;100352;-85
2021/07/30 09:10:30;;;;;;;1.58;0.88;;;26.80;48.50;;;22.86;100.00;99826.38;3545868;39;101520;-83
2021/07/30 09:13:22;;;;;;;2.35;0.70;;;26.50;48.30;;;23.07;100.00;99816.56;3554903;39;100169;-82
2021/07/30 09:16:00;;;;;;;0.88;0.75;;;26.60;48.70;;;22.61;100.00;99806.84;3550821;39;99940;-84
2021/07/30 09:18:31;;;;;;;2.67;0.57;;;26.70;48.00;;;23.19;100.00;99802.81;3528079;39;100314;-80
2021/07/30 09:21:21;;;;;;;1.45;0.70;;;26.80;48.50;;;23.23;100.00;99796.59;3526472;39;103000;-82
2021/07/30 09:23:52;;;;;;;0.70;0.70;;;26.80;48.60;;;22.42;100.00;99802.69;3536626;39;101581;-81
2021/07/30 09:26:37;;;;;;;1.00;0.73;;;26.80;47.20;;;23.03;100.00;99803.66;3534180;39;100454;-82
2021/07/30 09:29:08;;;;;;;0.50;0.50;;;26.60;48.00;;;23.19;100.00;99808.28;3541274;39;100067;-80
2021/07/30 09:31:42;;;;;;;0.60;0.60;;;27.00;48.80;;;23.08;100.00;99793.66;3531533;39;101125;-83
2021/07/30 09:34:28;;;;;;;0.80;0.60;;;26.50;48.70;;;22.95;100.00;99795.91;3537272;39;101128;-81
2021/07/30 09:36:59;;;;;;;0.60;0.57;;;26.70;48.00;;;23.05;100.00;99794.16;3526023;39;102965;-84
2021/07/30 09:39:36;;;;;;;0.40;0.40;;;27.20;48.80;;;22.56;100.00;99784.94;3537852;39;100084;-81
2021/07/30 09:42:05;;;;;;;3.42;1.05;;;26.40;47.40;;;22.83;100.00;99806.94;3535255;39;101197;-82
2021/07/30 09:44:35;;;;;;;1.10;0.70;;;26.30;48.30;;;22.88;100.00;99788.72;3538898;39;100968;-84
2021/07/30 09:47:22;;;;;;;1.65;0.85;;;26.20;48.50;;;22.93;100.00;99783.34;3527994;39;103085;-85
2021/07/30 09:49:53;;;;;;;0.57;0.57;;;26.20;48.70;;;22.99;100.00;99789.72;3530628;39;100129;-83
2021/07/30 09:52:23;;;;;;;0.60;0.57;;;26.10;49.20;;;22.97;100.00;99785.59;3539755;39;101245;-82
2021/07/30 09:54:55;;;;;;;1.90;0.80;;;26.40;49.00;;;22.84;100.00;99784.03;3552405;39;101273;-82
2021/07/30 09:57:25;;;;;;;0.80;0.80;;;26.60;49.00;;;23.26;100.00;99792.53;3531033;39;102623;-80
2021/07/30 09:59:57;;;;;;;0.60;0.60;;;27.00;49.30;;;22.95;100.00;99787.75;3536608;39;100140;-83
2021/07/30 10:02:30;;;;;;;0.55;0.43;;;26.10;48.00;;;23.38;100.00;99776.03;3536191;39;101105;-82
2021/07/30 10:04:58;;;;;;;1.25;0.73;;;26.90;49.10;;;23.39;100.00;99777.66;3538266;39;101160;-81
2021/07/30 10:07:28;;;;;;;4.38;1.25;;;26.30;48.80;;;22.90;100.00;99775.66;3542213;39;100411;-82
2021/07/30 10:10:07;;;;;;;0.85;0.70;;;26.10;47.80;;;23.52;100.00;99777.31;3537449;39;100255;-82